Terminal Aerodrome Forecast
Issued by NWS

Home | Current Version | Previous Version | Text Only | Print | Product List | Glossary On
Versions: 1 2 3 4 5 6 7 8 9 10 11 12
000
FTUS42 KTAE 172340
TAFECP
TAF
KECP 172340Z 1800/1824 15009KT 3SM -DZ BR BKN025 OVC050
     FM180600 16006KT 1SM -DZ BR OVC002
     FM181400 20008KT 2SM -DZ BR OVC004
     FM181800 19005KT 3SM -DZ BR OVC006=

USA.gov is the U.S. government's official web portal to all federal, state and local government web resources and services.